Time;durP1;ratioP1;P1;durP2;ratioP2;P2;SDS_P1;SDS_P2;PMS_P1;PMS_P2;Temp;Humidity;BMP_temperature;BMP_pressure;BME280_temperature;BME280_humidity;BME280_pressure;Samples;Min_cycle;Max_cycle;Signal;HPM_P1;HPM_P2
2022/01/03 00:01:55;;;;;;;22.08;10.98;;;8.20;99.90;;;;;;5070843;28;20099;-60
2022/01/03 00:04:21;;;;;;;18.17;8.48;;;8.10;99.90;;;;;;5070070;28;20407;-61
2022/01/03 00:06:48;;;;;;;14.57;9.60;;;8.20;99.90;;;;;;5072092;28;20020;-61
2022/01/03 00:09:14;;;;;;;23.40;11.20;;;8.10;99.90;;;;;;5069211;28;20032;-61
2022/01/03 00:11:40;;;;;;;18.90;9.05;;;8.00;99.90;;;;;;5068957;28;20063;-61
2022/01/03 00:14:05;;;;;;;16.88;6.97;;;7.90;99.90;;;;;;5068382;28;20024;-61
2022/01/03 00:16:31;;;;;;;17.13;7.28;;;8.00;99.90;;;;;;5068998;28;20031;-61
2022/01/03 00:18:57;;;;;;;27.92;8.77;;;8.30;99.90;;;;;;5073443;28;20024;-60
2022/01/03 00:21:29;;;;;;;18.25;6.18;;;8.40;99.90;;;;;;5069101;28;20038;-61
2022/01/03 00:24:06;;;;;;;18.33;7.68;;;8.50;99.90;;;;;;5068675;28;20032;-60
2022/01/03 00:26:34;;;;;;;16.33;6.10;;;8.60;99.90;;;;;;5068399;28;20029;-61
2022/01/03 00:29:18;;;;;;;13.63;5.70;;;8.50;99.90;;;;;;5070274;28;20105;-61
2022/01/03 00:31:45;;;;;;;23.35;8.77;;;8.60;99.90;;;;;;5054943;28;20072;-60
2022/01/03 00:34:13;;;;;;;22.63;7.60;;;8.40;99.90;;;;;;5071166;28;20102;-60
2022/01/03 00:36:42;;;;;;;16.38;7.40;;;8.40;99.90;;;;;;5070442;28;20036;-61
2022/01/03 00:39:09;;;;;;;19.58;6.65;;;8.30;99.90;;;;;;5068189;28;20032;-60
2022/01/03 00:41:39;;;;;;;21.23;7.07;;;8.10;99.90;;;;;;5070082;28;20166;-61
2022/01/03 00:44:06;;;;;;;21.13;7.50;;;8.00;99.90;;;;;;5068072;28;20058;-61
2022/01/03 00:46:32;;;;;;;37.53;16.63;;;8.10;99.90;;;;;;5068270;28;20039;-61
2022/01/03 00:49:01;;;;;;;14.07;8.00;;;8.00;99.90;;;;;;5071600;28;20031;-60
2022/01/03 00:51:27;;;;;;;19.02;7.07;;;8.00;99.90;;;;;;5069263;28;20202;-61
2022/01/03 00:53:53;;;;;;;16.65;6.90;;;8.30;99.90;;;;;;5067949;28;20099;-61
2022/01/03 00:56:43;;;;;;;14.93;5.45;;;8.40;99.90;;;;;;5068068;28;20029;-61
2022/01/03 00:59:15;;;;;;;19.65;6.18;;;8.40;99.90;;;;;;5067733;28;20398;-61
2022/01/03 01:01:45;;;;;;;19.15;6.40;;;8.40;99.90;;;;;;5068537;28;20386;-60
2022/01/03 01:04:12;;;;;;;20.63;6.35;;;8.50;99.90;;;;;;5070575;28;20025;-61
2022/01/03 01:06:38;;;;;;;13.77;5.40;;;8.50;99.90;;;;;;5069668;28;20028;-61
2022/01/03 01:09:06;;;;;;;17.17;6.05;;;8.70;99.90;;;;;;5068122;28;20017;-61
2022/01/03 01:11:33;;;;;;;13.95;5.75;;;8.60;99.90;;;;;;5067926;28;20038;-61
2022/01/03 01:14:00;;;;;;;16.00;5.90;;;8.60;99.90;;;;;;5067799;28;20012;-61
2022/01/03 01:16:26;;;;;;;15.73;5.53;;;8.70;99.90;;;;;;5051974;28;20395;-61
2022/01/03 01:18:52;;;;;;;18.00;5.78;;;8.80;99.90;;;;;;5071925;28;20047;-61
2022/01/03 01:21:19;;;;;;;18.05;5.22;;;8.70;99.90;;;;;;5069091;28;20367;-61
2022/01/03 01:23:45;;;;;;;13.63;5.32;;;8.90;99.90;;;;;;5066316;28;20127;-61
2022/01/03 01:28:56;;;;;;;15.55;6.47;;;8.70;99.90;;;;;;5069556;28;20035;-60
2022/01/03 01:31:24;;;;;;;16.45;5.50;;;8.70;99.90;;;;;;5068280;28;20104;-61
2022/01/03 01:33:55;;;;;;;15.55;5.47;;;8.70;99.90;;;;;;5071266;28;20052;-61
2022/01/03 01:36:27;;;;;;;14.95;5.45;;;8.80;99.90;;;;;;5066576;28;20036;-61
2022/01/03 01:39:07;;;;;;;18.05;5.90;;;8.80;99.90;;;;;;5067956;28;20024;-61
2022/01/03 01:41:38;;;;;;;17.45;6.10;;;8.80;99.90;;;;;;5067166;28;20039;-61
2022/01/03 01:44:08;;;;;;;14.38;5.93;;;8.70;99.90;;;;;;5067175;28;20033;-61
2022/01/03 01:46:41;;;;;;;19.42;6.97;;;8.70;99.90;;;;;;5069004;28;20028;-60
2022/01/03 01:49:07;;;;;;;97.80;88.13;;;8.80;99.90;;;;;;5070337;28;20513;-60
2022/01/03 01:51:37;;;;;;;20.25;9.77;;;8.70;99.90;;;;;;5068977;28;20037;-60
2022/01/03 01:54:05;;;;;;;16.40;6.70;;;8.80;99.90;;;;;;5066074;28;20454;-61
2022/01/03 01:56:47;;;;;;;19.98;8.40;;;8.80;99.90;;;;;;5066697;28;20106;-61
2022/01/03 01:59:20;;;;;;;20.70;8.32;;;8.70;99.90;;;;;;5068859;28;20025;-61
2022/01/03 02:01:54;;;;;;;23.10;9.02;;;8.70;99.90;;;;;;5067312;28;20021;-61
2022/01/03 02:04:45;;;;;;;21.38;10.13;;;8.70;99.90;;;;;;5067213;28;20487;-61
2022/01/03 02:07:42;;;;;;;27.33;10.98;;;8.70;99.90;;;;;;5047662;28;20479;-61
2022/01/03 02:10:09;;;;;;;23.15;9.95;;;8.80;99.90;;;;;;5047429;28;20064;-61
2022/01/03 02:12:41;;;;;;;19.48;8.68;;;8.50;99.90;;;;;;5048868;28;20624;-61
2022/01/03 02:15:11;;;;;;;20.73;9.65;;;8.40;99.90;;;;;;5047802;28;20171;-61
2022/01/03 02:17:38;;;;;;;19.13;9.23;;;8.30;99.90;;;;;;5047767;28;20500;-61
2022/01/03 02:20:04;;;;;;;18.65;8.73;;;8.60;99.90;;;;;;5047864;28;20029;-61
2022/01/03 02:22:30;;;;;;;19.45;8.93;;;8.70;99.90;;;;;;5047763;28;20541;-61
2022/01/03 02:24:56;;;;;;;18.70;9.20;;;8.50;99.90;;;;;;5048683;28;20040;-61
2022/01/03 02:27:21;;;;;;;19.67;9.30;;;8.50;99.90;;;;;;5047378;28;20132;-61
2022/01/03 02:29:47;;;;;;;18.48;9.13;;;8.50;99.90;;;;;;5048007;28;20090;-61
2022/01/03 02:32:13;;;;;;;21.42;10.90;;;8.40;99.90;;;;;;5047517;28;20025;-61
2022/01/03 02:34:40;;;;;;;28.65;12.88;;;8.40;99.90;;;;;;5047433;28;20041;-61
2022/01/03 02:37:06;;;;;;;30.85;13.18;;;8.40;99.90;;;;;;5047700;28;20057;-61
2022/01/03 02:39:32;;;;;;;20.80;10.10;;;8.40;99.90;;;;;;5048712;28;20063;-61
2022/01/03 02:41:58;;;;;;;22.95;10.70;;;8.20;99.90;;;;;;5047394;28;20406;-61
2022/01/03 02:44:24;;;;;;;20.35;10.30;;;8.00;99.90;;;;;;5057746;28;20112;-61
2022/01/03 02:46:51;;;;;;;17.90;9.25;;;8.00;99.90;;;;;;5068389;28;20055;-61
2022/01/03 02:49:17;;;;;;;22.23;10.23;;;8.00;99.90;;;;;;5071531;28;20021;-61
2022/01/03 02:51:44;;;;;;;22.98;12.35;;;8.10;99.90;;;;;;5071636;28;20036;-61
2022/01/03 02:54:11;;;;;;;31.52;12.63;;;8.20;99.90;;;;;;5070537;28;20089;-61
2022/01/03 02:56:36;;;;;;;30.23;15.13;;;8.10;99.90;;;;;;5070481;28;20111;-61
2022/01/03 02:59:10;;;;;;;43.78;22.05;;;8.00;99.90;;;;;;5070354;28;20104;-61
2022/01/03 03:01:36;;;;;;;;;;;8.00;99.90;;;;;;5070956;28;20028;-60
2022/01/03 03:04:01;;;;;;;29.35;17.15;;;8.10;99.90;;;;;;5073377;28;20354;-61
2022/01/03 03:06:30;;;;;;;31.92;16.92;;;8.10;99.90;;;;;;5069927;28;20508;-61
2022/01/03 03:08:55;;;;;;;33.45;16.08;;;8.10;99.90;;;;;;5069720;28;20029;-61
2022/01/03 03:11:21;;;;;;;28.42;15.05;;;8.30;99.90;;;;;;5071829;28;20047;-61
2022/01/03 03:13:47;;;;;;;29.80;16.38;;;8.30;99.90;;;;;;5070123;28;20025;-61
2022/01/03 03:16:12;;;;;;;30.08;12.95;;;8.30;99.90;;;;;;5071841;28;20471;-61
2022/01/03 03:18:42;;;;;;;29.75;14.93;;;8.30;99.90;;;;;;5073917;28;20467;-61
2022/01/03 03:21:08;;;;;;;40.80;24.15;;;8.10;99.90;;;;;;5070043;28;20052;-61
2022/01/03 03:23:33;;;;;;;30.27;18.13;;;8.00;99.90;;;;;;5069580;28;20059;-61
2022/01/03 03:25:59;;;;;;;36.20;22.80;;;7.90;99.90;;;;;;5069805;28;20025;-61
2022/01/03 03:28:25;;;;;;;30.83;20.88;;;7.90;99.90;;;;;;5070737;28;20071;-61
2022/01/03 03:30:52;;;;;;;28.50;15.57;;;7.80;99.90;;;;;;5073452;28;20036;-61
2022/01/03 03:33:22;;;;;;;35.60;18.67;;;7.90;99.90;;;;;;5069537;28;20049;-61
2022/01/03 03:35:52;;;;;;;30.17;16.35;;;7.90;99.90;;;;;;5069618;28;20033;-61
2022/01/03 03:38:19;;;;;;;27.42;16.58;;;7.90;99.90;;;;;;5069250;28;20016;-61
2022/01/03 03:40:47;;;;;;;35.05;23.05;;;8.10;99.90;;;;;;5069744;28;20028;-61
2022/01/03 03:43:14;;;;;;;57.85;31.65;;;8.20;99.90;;;;;;5072417;28;20078;-61
2022/01/03 03:45:40;;;;;;;48.00;24.95;;;8.30;99.90;;;;;;5071622;28;20586;-61
2022/01/03 03:48:06;;;;;;;48.65;25.30;;;8.40;99.90;;;;;;5069353;28;20036;-61
2022/01/03 03:50:32;;;;;;;43.90;23.42;;;8.50;99.90;;;;;;5071090;28;20410;-60
2022/01/03 03:52:57;;;;;;;41.58;24.08;;;8.40;99.90;;;;;;5069106;28;20035;-61
2022/01/03 03:55:23;;;;;;;32.60;18.25;;;8.40;99.90;;;;;;5070758;28;20028;-61
2022/01/03 03:57:49;;;;;;;36.65;20.95;;;8.50;99.90;;;;;;5073675;28;20029;-60
2022/01/03 04:00:17;;;;;;;34.28;19.52;;;8.50;99.90;;;;;;5068407;28;20043;-61
2022/01/03 04:02:43;;;;;;;60.60;26.38;;;8.50;99.90;;;;;;5069099;28;20241;-61
2022/01/03 04:05:10;;;;;;;63.90;27.25;;;8.60;99.90;;;;;;5068988;28;20044;-61
2022/01/03 04:07:36;;;;;;;59.28;25.58;;;8.90;99.90;;;;;;5068429;28;20088;-60
2022/01/03 04:10:04;;;;;;;62.00;26.20;;;9.00;99.90;;;;;;5072200;28;20044;-60
2022/01/03 04:12:30;;;;;;;51.60;23.67;;;9.00;99.90;;;;;;5070288;28;20573;-61
2022/01/03 04:14:56;;;;;;;35.22;17.77;;;9.20;99.90;;;;;;5069262;28;20095;-60
2022/01/03 04:17:21;;;;;;;32.55;16.02;;;9.20;99.90;;;;;;5068685;28;20124;-61
2022/01/03 04:19:47;;;;;;;33.83;14.27;;;9.10;99.90;;;;;;5068970;28;20392;-61
2022/01/03 04:22:13;;;;;;;26.10;12.95;;;8.90;99.90;;;;;;5070902;28;20082;-61
2022/01/03 04:24:38;;;;;;;26.80;13.98;;;9.00;99.90;;;;;;5070229;28;20035;-61
2022/01/03 04:27:04;;;;;;;30.55;11.80;;;8.90;99.90;;;;;;5068731;28;20474;-60
2022/01/03 04:29:30;;;;;;;26.55;10.65;;;8.90;99.90;;;;;;5068748;28;20111;-61
2022/01/03 04:31:55;;;;;;;27.80;10.38;;;8.90;99.90;;;;;;5068393;28;20032;-60
2022/01/03 04:34:21;;;;;;;26.98;9.85;;;8.90;99.90;;;;;;5070301;28;20028;-61
2022/01/03 04:36:47;;;;;;;24.67;9.85;;;8.80;99.90;;;;;;5072150;28;20085;-61
2022/01/03 04:39:13;;;;;;;25.40;8.50;;;8.90;99.90;;;;;;5068165;28;20402;-61
2022/01/03 04:41:38;;;;;;;22.60;8.95;;;8.90;99.90;;;;;;5068926;28;20103;-61
2022/01/03 04:44:07;;;;;;;21.92;8.38;;;8.90;99.90;;;;;;5068500;28;20016;-61
2022/01/03 04:46:34;;;;;;;15.40;7.47;;;8.90;99.90;;;;;;5067876;28;20039;-61
2022/01/03 04:49:00;;;;;;;25.77;8.50;;;8.90;99.90;;;;;;5072142;28;20066;-61
2022/01/03 04:51:26;;;;;;;21.65;9.05;;;8.90;99.90;;;;;;5069972;28;20048;-61
2022/01/03 04:53:52;;;;;;;19.92;7.78;;;8.90;99.90;;;;;;5068118;28;20024;-60
2022/01/03 04:56:17;;;;;;;20.52;8.07;;;8.90;99.90;;;;;;5068118;28;20036;-60
2022/01/03 04:58:43;;;;;;;23.23;8.07;;;8.90;99.90;;;;;;5068507;28;20025;-61
2022/01/03 05:01:10;;;;;;;24.90;8.45;;;8.90;99.90;;;;;;5070345;28;20033;-61
2022/01/03 05:03:36;;;;;;;21.85;8.15;;;8.80;99.90;;;;;;5070024;28;20032;-61
2022/01/03 05:06:02;;;;;;;23.00;7.68;;;8.70;99.90;;;;;;5067887;28;20452;-61
2022/01/03 05:08:29;;;;;;;18.15;7.43;;;8.80;99.90;;;;;;5069662;28;20040;-61
2022/01/03 05:10:55;;;;;;;20.77;7.20;;;8.90;99.90;;;;;;5067958;28;20033;-61
2022/01/03 05:13:21;;;;;;;16.83;7.20;;;8.90;99.90;;;;;;5070025;28;20036;-61
2022/01/03 05:15:47;;;;;;;20.10;7.28;;;8.70;99.90;;;;;;5072251;28;20024;-60
2022/01/03 05:18:13;;;;;;;18.05;6.72;;;8.70;99.90;;;;;;5067995;28;20513;-61
2022/01/03 05:20:38;;;;;;;17.35;6.75;;;8.70;99.90;;;;;;5067637;28;20028;-61
2022/01/03 05:23:04;;;;;;;19.92;6.90;;;8.70;99.90;;;;;;5067931;28;20016;-61
2022/01/03 05:25:30;;;;;;;17.25;7.10;;;8.70;99.90;;;;;;5068336;28;20107;-60
2022/01/03 05:27:56;;;;;;;18.73;6.82;;;8.70;99.90;;;;;;5068563;28;20021;-60
2022/01/03 05:30:21;;;;;;;17.55;6.47;;;8.70;99.90;;;;;;5067727;28;20569;-60
2022/01/03 05:32:47;;;;;;;20.65;7.45;;;8.80;99.90;;;;;;5068093;28;20064;-60
2022/01/03 05:35:13;;;;;;;21.73;7.40;;;8.80;99.90;;;;;;5069956;28;20028;-60
2022/01/03 05:37:39;;;;;;;16.10;6.95;;;8.70;99.90;;;;;;5068379;28;20364;-60
2022/01/03 05:40:05;;;;;;;18.25;6.50;;;8.60;99.90;;;;;;5071411;28;20075;-60
2022/01/03 05:42:32;;;;;;;23.77;6.95;;;8.50;99.90;;;;;;5071146;28;20063;-60
2022/01/03 05:44:58;;;;;;;16.65;6.18;;;8.50;99.90;;;;;;5067380;28;20040;-60
2022/01/03 05:47:24;;;;;;;18.40;5.30;;;8.40;99.90;;;;;;5069087;28;20029;-60
2022/01/03 05:49:51;;;;;;;19.00;6.05;;;8.40;99.90;;;;;;5066835;28;20097;-60
2022/01/03 05:52:17;;;;;;;18.38;7.00;;;8.50;99.90;;;;;;5068683;28;20024;-60
2022/01/03 05:54:43;;;;;;;20.02;7.25;;;8.30;99.90;;;;;;5071374;28;20044;-60
2022/01/03 05:57:08;;;;;;;21.33;7.68;;;8.40;99.90;;;;;;5068924;28;20028;-60
2022/01/03 05:59:34;;;;;;;16.55;6.80;;;8.40;99.90;;;;;;5067234;28;20502;-60
2022/01/03 06:02:00;;;;;;;21.77;7.38;;;8.40;99.90;;;;;;5067305;28;20517;-60
2022/01/03 06:04:39;;;;;;;17.52;7.75;;;8.50;99.90;;;;;;5068197;28;20029;-60
2022/01/03 06:07:08;;;;;;;17.70;7.38;;;8.50;99.90;;;;;;5066882;28;20024;-60
2022/01/03 06:09:34;;;;;;;16.35;7.25;;;8.50;99.90;;;;;;5070266;28;20029;-60
2022/01/03 06:12:00;;;;;;;21.13;6.78;;;8.50;99.90;;;;;;5067125;28;20036;-60
2022/01/03 06:14:26;;;;;;;16.85;7.13;;;8.50;99.90;;;;;;5066952;28;20080;-60
2022/01/03 06:16:52;;;;;;;19.10;6.63;;;8.50;99.90;;;;;;5067316;28;20116;-60
2022/01/03 06:19:18;;;;;;;16.15;6.63;;;8.60;99.90;;;;;;5068667;28;20082;-60
2022/01/03 06:21:45;;;;;;;14.98;6.18;;;8.60;99.90;;;;;;5069578;28;20028;-61
2022/01/03 06:24:13;;;;;;;18.23;6.50;;;8.60;99.90;;;;;;5070144;28;20070;-60
2022/01/03 06:26:41;;;;;;;16.20;5.40;;;8.60;99.90;;;;;;5072909;28;20411;-60
2022/01/03 06:29:08;;;;;;;15.25;5.43;;;8.70;99.90;;;;;;5070615;28;20075;-60
2022/01/03 06:31:33;;;;;;;15.02;5.53;;;8.70;99.90;;;;;;5072275;28;20132;-60
2022/01/03 06:33:59;;;;;;;16.23;5.22;;;8.70;99.90;;;;;;5074989;28;20120;-60
2022/01/03 06:36:25;;;;;;;13.95;5.40;;;8.70;99.90;;;;;;5071280;28;20116;-60
2022/01/03 06:38:52;;;;;;;17.95;6.32;;;8.60;99.90;;;;;;5070666;28;20447;-60
2022/01/03 06:41:17;;;;;;;14.60;6.20;;;8.70;99.90;;;;;;5070258;28;20090;-60
2022/01/03 06:43:43;;;;;;;15.82;6.45;;;8.60;99.90;;;;;;5070764;28;20025;-60
2022/01/03 06:46:09;;;;;;;20.20;9.73;;;8.60;99.90;;;;;;5072784;28;20074;-61
2022/01/03 06:48:35;;;;;;;17.52;6.18;;;8.60;99.90;;;;;;5072440;28;20020;-60
2022/01/03 06:51:01;;;;;;;19.98;5.82;;;8.60;99.90;;;;;;5071361;28;20101;-60
2022/01/03 06:53:26;;;;;;;18.42;5.47;;;8.70;99.90;;;;;;5071223;28;20028;-61
2022/01/03 06:55:52;;;;;;;18.58;5.25;;;8.60;99.90;;;;;;5070768;28;20029;-60
2022/01/03 06:58:18;;;;;;;17.33;5.07;;;8.60;99.90;;;;;;5072521;28;20017;-60
2022/01/03 07:00:44;;;;;;;16.15;5.55;;;8.50;99.90;;;;;;5070971;28;20490;-60
2022/01/03 07:03:09;;;;;;;9.38;4.85;;;8.40;99.90;;;;;;5070588;28;20029;-60
2022/01/03 07:05:35;;;;;;;14.38;4.80;;;8.40;99.90;;;;;;5071950;28;20039;-60
2022/01/03 07:08:01;;;;;;;12.63;4.78;;;8.40;99.90;;;;;;5069779;28;20024;-60
2022/01/03 07:10:27;;;;;;;12.30;4.40;;;8.50;99.90;;;;;;5071654;28;20523;-60
2022/01/03 07:12:54;;;;;;;16.38;5.60;;;8.50;99.90;;;;;;5074262;28;20070;-60
2022/01/03 07:20:49;;;;;;;18.13;5.40;;;8.50;99.90;;;;;;5071689;28;20044;-60
2022/01/03 07:23:17;;;;;;;13.75;5.63;;;8.50;99.90;;;;;;5070856;28;20491;-60
2022/01/03 07:25:45;;;;;;;15.35;5.65;;;8.50;99.90;;;;;;5070879;28;20028;-60
2022/01/03 07:28:11;;;;;;;12.02;5.57;;;8.30;99.90;;;;;;5073170;28;20036;-60
2022/01/03 07:30:37;;;;;;;20.70;6.13;;;8.30;99.90;;;;;;5071032;28;20028;-60
2022/01/03 07:33:03;;;;;;;15.18;5.57;;;8.30;99.90;;;;;;5069626;28;20071;-60
2022/01/03 07:35:28;;;;;;;16.60;6.22;;;8.30;99.90;;;;;;5068410;28;20047;-60
2022/01/03 07:37:54;;;;;;;16.10;6.10;;;8.30;99.90;;;;;;5069730;28;20028;-60
2022/01/03 07:40:21;;;;;;;15.23;6.13;;;8.20;99.90;;;;;;5071486;28;20406;-61
2022/01/03 07:42:47;;;;;;;17.73;6.55;;;8.30;99.90;;;;;;5072107;28;20457;-60
2022/01/03 07:45:13;;;;;;;15.75;6.20;;;8.40;99.90;;;;;;5071128;28;20030;-61
2022/01/03 07:47:39;;;;;;;18.08;5.60;;;8.40;99.90;;;;;;5069360;28;20472;-60
2022/01/03 07:50:07;;;;;;;15.68;6.38;;;8.50;99.90;;;;;;5070682;28;20036;-60
2022/01/03 07:52:32;;;;;;;17.20;5.65;;;8.40;99.90;;;;;;5069474;28;20043;-60
2022/01/03 07:54:58;;;;;;;16.17;5.75;;;8.40;99.90;;;;;;5073581;28;20020;-60
2022/01/03 07:57:24;;;;;;;17.13;5.50;;;8.60;99.90;;;;;;5069546;28;20119;-60
2022/01/03 07:59:50;;;;;;;15.25;5.28;;;8.60;99.90;;;;;;5068908;28;20568;-61
2022/01/03 08:02:15;;;;;;;16.70;5.55;;;8.70;99.90;;;;;;5069090;28;20012;-60
2022/01/03 08:04:41;;;;;;;15.30;5.05;;;8.70;99.90;;;;;;5069524;28;20125;-61
2022/01/03 08:07:07;;;;;;;13.85;5.05;;;8.70;99.90;;;;;;5071989;28;20016;-60
2022/01/03 08:09:33;;;;;;;15.15;4.82;;;8.80;99.90;;;;;;5071721;28;20033;-60
2022/01/03 08:12:00;;;;;;;15.32;4.50;;;8.80;99.90;;;;;;5068909;28;20067;-60
2022/01/03 08:14:25;;;;;;;16.13;4.30;;;8.90;99.90;;;;;;5068872;28;20486;-60
2022/01/03 08:16:51;;;;;;;18.67;4.60;;;9.00;99.90;;;;;;5069057;28;20035;-60
2022/01/03 08:19:17;;;;;;;19.88;4.80;;;9.20;99.90;;;;;;5070909;28;20047;-60
2022/01/03 08:21:43;;;;;;;19.13;4.82;;;9.30;99.90;;;;;;5070973;28;20024;-60
2022/01/03 08:24:08;;;;;;;14.32;4.50;;;9.60;99.90;;;;;;5070581;28;20111;-60
2022/01/03 08:26:36;;;;;;;16.10;4.30;;;10.00;99.90;;;;;;5068267;28;20028;-60
2022/01/03 08:29:02;;;;;;;18.02;4.13;;;10.00;99.90;;;;;;5070044;28;20053;-60
2022/01/03 08:31:28;;;;;;;13.13;3.88;;;10.10;99.90;;;;;;5069577;28;20045;-60
2022/01/03 08:33:54;;;;;;;17.13;4.25;;;10.30;99.90;;;;;;5072053;28;20052;-60
2022/01/03 08:36:20;;;;;;;16.05;3.90;;;10.50;99.90;;;;;;5068481;28;20710;-60
2022/01/03 08:38:46;;;;;;;17.40;4.25;;;10.50;99.90;;;;;;5068405;28;20567;-60
2022/01/03 08:41:12;;;;;;;12.02;3.83;;;10.90;99.90;;;;;;5068262;28;20020;-60
2022/01/03 08:43:38;;;;;;;11.85;3.65;;;11.20;99.90;;;;;;5068355;28;20048;-59
2022/01/03 08:46:04;;;;;;;11.25;3.22;;;11.60;99.90;;;;;;5072404;28;20412;-60
2022/01/03 08:48:30;;;;;;;13.88;3.13;;;11.50;99.90;;;;;;5070177;28;20064;-60
2022/01/03 08:50:57;;;;;;;13.07;3.30;;;11.60;99.90;;;;;;5070769;28;20043;-60
2022/01/03 08:53:26;;;;;;;6.82;2.65;;;12.20;99.90;;;;;;5068618;28;20490;-61
2022/01/03 08:55:56;;;;;;;12.35;3.15;;;12.90;99.90;;;;;;5069014;28;20036;-60
2022/01/03 08:58:22;;;;;;;9.02;3.20;;;13.60;99.90;;;;;;5070015;28;20046;-60
2022/01/03 09:00:48;;;;;;;11.35;3.20;;;13.70;99.90;;;;;;5071149;28;20023;-60
2022/01/03 09:03:15;;;;;;;11.90;3.45;;;13.20;99.90;;;;;;5069354;28;20032;-60
2022/01/03 09:05:40;;;;;;;8.27;3.00;;;13.30;99.90;;;;;;5069627;28;20162;-61
2022/01/03 09:08:08;;;;;;;13.05;3.30;;;13.30;99.90;;;;;;5069652;28;20490;-61
2022/01/03 09:10:34;;;;;;;9.70;3.22;;;13.40;99.90;;;;;;5067569;28;20040;-61
2022/01/03 09:13:00;;;;;;;11.43;3.88;;;13.60;99.90;;;;;;5072219;28;20036;-60
2022/01/03 09:15:26;;;;;;;13.93;3.38;;;13.80;99.90;;;;;;5068137;28;20098;-61
2022/01/03 09:17:52;;;;;;;11.68;3.85;;;13.60;99.90;;;;;;5067995;28;20116;-60
2022/01/03 09:20:18;;;;;;;9.07;3.22;;;13.60;99.90;;;;;;5068975;28;20036;-61
2022/01/03 09:22:47;;;;;;;11.32;3.17;;;13.90;99.90;;;;;;5068867;28;20023;-61
2022/01/03 09:30:42;;;;;;;11.82;3.20;;;14.20;99.90;;;;;;5070255;28;20047;-60
2022/01/03 09:33:08;;;;;;;11.77;3.47;;;14.00;99.90;;;;;;5067440;28;20048;-60
2022/01/03 09:35:33;;;;;;;13.55;3.83;;;14.50;99.90;;;;;;5067677;28;20158;-60
2022/01/03 09:37:59;;;;;;;11.23;3.45;;;14.80;99.90;;;;;;5067600;28;20031;-60
2022/01/03 09:40:25;;;;;;;11.60;3.58;;;15.10;99.90;;;;;;5069215;28;20512;-60
2022/01/03 09:42:56;;;;;;;9.48;3.00;;;14.80;99.90;;;;;;5071533;28;20054;-60
2022/01/03 09:45:21;;;;;;;12.90;3.17;;;15.00;99.90;;;;;;5067235;28;20032;-60
2022/01/03 09:47:52;;;;;;;8.98;3.05;;;15.60;99.90;;;;;;5068847;28;20398;-60
2022/01/03 09:50:21;;;;;;;9.73;3.17;;;15.80;99.90;;;;;;5067163;28;20038;-61
2022/01/03 09:52:48;;;;;;;9.95;3.03;;;15.60;99.90;;;;;;5067595;28;20043;-60
2022/01/03 09:55:20;;;;;;;10.65;3.15;;;15.30;99.90;;;;;;5069050;28;20025;-61
2022/01/03 09:57:46;;;;;;;13.18;3.40;;;15.00;99.90;;;;;;5069440;28;20025;-60
2022/01/03 10:00:24;;;;;;;11.45;2.90;;;14.90;99.90;;;;;;5067306;28;20029;-60
2022/01/03 10:02:51;;;;;;;10.25;3.38;;;15.30;99.90;;;;;;5067338;28;20103;-61
2022/01/03 10:05:17;;;;;;;9.13;3.20;;;15.70;99.90;;;;;;5067620;28;20024;-61
2022/01/03 10:07:43;;;;;;;11.95;3.28;;;15.40;99.90;;;;;;5066995;28;20111;-60
2022/01/03 10:10:09;;;;;;;11.52;3.33;;;15.00;99.90;;;;;;5069215;28;20041;-60
2022/01/03 10:12:36;;;;;;;11.25;3.10;;;15.30;99.90;;;;;;5068712;28;20491;-60
2022/01/03 10:15:06;;;;;;;8.27;2.80;;;15.30;99.90;;;;;;5067250;28;20028;-60
2022/01/03 10:17:35;;;;;;;12.70;3.28;;;15.00;99.90;;;;;;5067422;28;20025;-60
2022/01/03 10:20:00;;;;;;;10.48;3.13;;;15.70;99.90;;;;;;5066971;28;20024;-61
2022/01/03 10:22:30;;;;;;;12.57;3.33;;;15.70;99.90;;;;;;5067800;28;20498;-61
2022/01/03 10:24:57;;;;;;;13.88;3.35;;;15.00;99.90;;;;;;5070665;28;20028;-61
2022/01/03 10:27:25;;;;;;;7.45;2.95;;;14.90;99.90;;;;;;5068795;28;20021;-60
2022/01/03 10:29:57;;;;;;;10.02;3.15;;;14.60;99.90;;;;;;5066664;28;20040;-61
2022/01/03 10:32:30;;;;;;;9.87;3.30;;;14.70;99.90;;;;;;5067140;28;20047;-61
2022/01/03 10:35:11;;;;;;;11.48;3.13;;;14.90;99.90;;;;;;5066804;28;20290;-60
2022/01/03 10:37:37;;;;;;;11.77;3.03;;;15.20;99.90;;;;;;5051241;28;20033;-60
2022/01/03 10:40:17;;;;;;;9.02;2.95;;;15.70;99.90;;;;;;5070240;28;20031;-60
2022/01/03 10:42:43;;;;;;;8.65;2.78;;;16.20;99.90;;;;;;5068942;28;20028;-61
2022/01/03 10:45:09;;;;;;;13.23;2.88;;;16.20;99.90;;;;;;5067115;28;20154;-61
2022/01/03 10:47:34;;;;;;;14.40;3.53;;;15.40;99.90;;;;;;5066771;28;20119;-60
2022/01/03 10:50:16;;;;;;;8.85;3.00;;;16.00;99.90;;;;;;5066668;28;20561;-60
2022/01/03 10:52:43;;;;;;;10.00;2.60;;;17.00;99.90;;;;;;5052157;28;20032;-61
2022/01/03 10:55:23;;;;;;;8.05;2.85;;;16.80;99.90;;;;;;5069826;28;20123;-61
2022/01/03 10:57:52;;;;;;;10.07;2.92;;;16.70;99.90;;;;;;5069730;28;20033;-60
2022/01/03 11:00:23;;;;;;;10.85;3.13;;;16.60;99.90;;;;;;5068188;28;20491;-61
2022/01/03 11:03:15;;;;;;;8.98;2.42;;;16.60;99.90;;;;;;5066429;28;20552;-61
2022/01/03 11:05:48;;;;;;;10.18;2.80;;;16.80;99.90;;;;;;5067941;28;20060;-60
2022/01/03 11:10:58;;;;;;;11.00;3.15;;;17.10;99.90;;;;;;5070843;28;20076;-60
2022/01/03 11:13:24;;;;;;;10.07;3.00;;;17.30;99.90;;;;;;5071233;28;20438;-60
2022/01/03 11:15:55;;;;;;;12.77;3.08;;;17.60;99.90;;;;;;5073170;28;20120;-60
2022/01/03 11:18:25;;;;;;;11.63;3.03;;;17.80;99.90;;;;;;5069931;28;20067;-61
2022/01/03 11:21:03;;;;;;;10.57;2.90;;;17.80;99.90;;;;;;5070215;28;20028;-61
2022/01/03 11:23:29;;;;;;;10.85;2.92;;;17.90;99.90;;;;;;5070138;28;20107;-61
2022/01/03 11:25:54;;;;;;;9.93;2.83;;;17.60;99.90;;;;;;5070200;28;20047;-61
2022/01/03 11:28:25;;;;;;;10.15;2.72;;;17.50;99.90;;;;;;5071657;28;20349;-61
2022/01/03 11:30:53;;;;;;;9.05;2.83;;;17.80;99.90;;;;;;5072833;28;20043;-61
2022/01/03 11:33:20;;;;;;;7.03;2.22;;;17.90;99.90;;;;;;5070243;28;20181;-60
2022/01/03 11:35:50;;;;;;;13.85;2.67;;;17.80;99.90;;;;;;5069458;28;20111;-61
2022/01/03 11:38:20;;;;;;;8.80;2.60;;;17.90;99.90;;;;;;5069777;28;20057;-61
2022/01/03 11:40:46;;;;;;;8.50;2.72;;;17.60;99.90;;;;;;5069626;28;20029;-61
2022/01/03 11:43:13;;;;;;;11.70;2.92;;;17.60;99.90;;;;;;5072211;28;20490;-61
2022/01/03 11:45:39;;;;;;;10.27;2.75;;;17.60;99.90;;;;;;5073021;28;20436;-61
2022/01/03 11:48:07;;;;;;;10.70;2.67;;;18.00;99.90;;;;;;5069453;28;20434;-61
2022/01/03 11:50:36;;;;;;;8.00;2.38;;;18.00;99.90;;;;;;5069249;28;20052;-60
2022/01/03 11:53:06;;;;;;;8.35;2.88;;;18.50;99.90;;;;;;5069465;28;20024;-61
2022/01/03 11:55:37;;;;;;;10.75;2.67;;;18.10;99.90;;;;;;5053746;28;20508;-61
2022/01/03 12:06:01;;;;;;;11.85;2.55;;;18.00;99.90;;;;;;5070966;28;20051;-60
2022/01/03 12:08:33;;;;;;;9.57;2.58;;;18.40;99.90;;;;;;5069165;28;20059;-60
2022/01/03 12:11:00;;;;;;;8.40;2.30;;;18.10;99.90;;;;;;5069096;28;20036;-60
2022/01/03 12:13:45;;;;;;;8.82;2.35;;;18.30;99.90;;;;;;5070074;28;20112;-60
2022/01/03 12:16:12;;;;;;;8.23;2.50;;;18.40;99.90;;;;;;5068977;28;20028;-60
2022/01/03 12:18:38;;;;;;;9.52;2.50;;;18.60;99.90;;;;;;5070539;28;20464;-60
2022/01/03 12:21:04;;;;;;;9.77;2.50;;;18.40;99.90;;;;;;5068053;28;20043;-60
2022/01/03 12:23:41;;;;;;;7.10;2.15;;;18.40;99.90;;;;;;5070210;28;20437;-60
2022/01/03 12:26:09;;;;;;;7.45;2.20;;;18.50;99.90;;;;;;5068703;28;20035;-60
2022/01/03 12:29:02;;;;;;;7.43;1.98;;;18.20;99.90;;;;;;5068718;28;20120;-60
2022/01/03 12:32:06;;;;;;;7.93;2.30;;;18.40;99.90;;;;;;5069012;28;20048;-60
2022/01/03 12:34:32;;;;;;;10.57;2.83;;;18.50;99.90;;;;;;5052275;28;20039;-60
2022/01/03 12:37:19;;;;;;;7.45;2.42;;;18.70;99.90;;;;;;5072818;28;20414;-64
2022/01/03 12:40:04;;;;;;;7.97;2.33;;;18.70;99.90;;;;;;5069936;28;20380;-62
2022/01/03 12:45:14;;;;;;;;;;;18.50;99.90;;;;;;5070218;28;20036;-62
2022/01/03 12:47:41;;;;;;;7.78;2.08;;;18.50;99.90;;;;;;5068411;28;19912;-61
2022/01/03 12:50:29;;;;;;;8.73;2.20;;;18.10;99.90;;;;;;5067896;28;20481;-62
2022/01/03 12:52:58;;;;;;;8.30;2.33;;;18.00;99.90;;;;;;5068333;28;20016;-61
2022/01/03 12:55:41;;;;;;;7.45;2.03;;;18.40;99.90;;;;;;5069452;28;20123;-62
2022/01/03 12:58:18;;;;;;;6.70;2.33;;;18.30;99.90;;;;;;5067725;28;20032;-62
2022/01/03 13:01:21;;;;;;;6.38;2.30;;;18.00;99.90;;;;;;5070385;28;20035;-61
2022/01/03 13:03:58;;;;;;;6.80;2.17;;;18.10;99.90;;;;;;5069177;28;20107;-61
2022/01/03 13:06:30;;;;;;;7.38;2.30;;;17.90;99.90;;;;;;5067842;28;20028;-61
2022/01/03 13:08:55;;;;;;;7.30;2.08;;;17.90;99.90;;;;;;5067808;28;20021;-60
2022/01/03 13:11:21;;;;;;;8.18;2.50;;;18.10;99.90;;;;;;5068319;28;20054;-61
2022/01/03 13:13:53;;;;;;;10.10;2.17;;;17.90;99.90;;;;;;5068309;28;20111;-61
2022/01/03 13:16:24;;;;;;;9.07;2.10;;;17.90;99.90;;;;;;5070074;28;20085;-61